Terminal Aerodrome Forecast
Issued by NWS

Home | Current Version | Previous Version | Text Only | Print | Product List | Glossary On
Versions: 1 2 3 4 5 6 7 8 9 10 11 12 13 14 15 16
000
FTUS44 KEPZ 190545
TAFLRU
TAF
KLRU 190545Z 1906/2006 25009KT P6SM SCT060 SCT100 BKN250
      TEMPO 1910/1914 26012G22KT P6SM
     FM191400 25015G25KT P6SM VCSH FEW020 BKN040 BKN100
     FM191800 23025G35KT P6SM FEW025 BKN040 BKN090
     FM200300 26011KT P6SM SCT040 BKN090 OVC150=

USA.gov is the U.S. government's official web portal to all federal, state and local government web resources and services.